sensor_id;sensor_type;location;lat;lon;timestamp;temperature;humidity
11656;DHT22;5884;43.618;1.438;2023-03-13T05:47:06;11.00;99.90
11656;DHT22;5884;43.618;1.438;2023-03-13T05:49:35;11.10;99.90
11656;DHT22;5884;43.618;1.438;2023-03-13T05:52:03;11.00;99.90
11656;DHT22;5884;43.618;1.438;2023-03-13T05:54:30;11.00;99.90
11656;DHT22;5884;43.618;1.438;2023-03-13T05:56:58;10.90;99.90
11656;DHT22;5884;43.618;1.438;2023-03-13T05:59:25;10.80;99.90
11656;DHT22;5884;43.618;1.438;2023-03-13T06:01:52;10.80;99.90
11656;DHT22;5884;43.618;1.438;2023-03-13T06:04:21;10.80;99.90
11656;DHT22;5884;43.618;1.438;2023-03-13T06:06:48;10.80;99.90
11656;DHT22;5884;43.618;1.438;2023-03-13T06:09:15;10.70;99.90
11656;DHT22;5884;43.618;1.438;2023-03-13T06:11:43;10.70;99.90
11656;DHT22;5884;43.618;1.438;2023-03-13T06:14:10;10.70;99.90
11656;DHT22;5884;43.618;1.438;2023-03-13T06:16:37;10.60;99.90
11656;DHT22;5884;43.618;1.438;2023-03-13T06:19:04;10.60;99.90
11656;DHT22;5884;43.618;1.438;2023-03-13T06:21:33;10.60;99.90
11656;DHT22;5884;43.618;1.438;2023-03-13T06:24:01;10.60;99.90
11656;DHT22;5884;43.618;1.438;2023-03-13T06:26:28;10.50;99.90
11656;DHT22;5884;43.618;1.438;2023-03-13T06:28:55;10.50;99.90
11656;DHT22;5884;43.618;1.438;2023-03-13T06:31:23;10.50;99.90
11656;DHT22;5884;43.618;1.438;2023-03-13T06:33:52;10.60;99.90
11656;DHT22;5884;43.618;1.438;2023-03-13T06:36:20;10.50;99.90
11656;DHT22;5884;43.618;1.438;2023-03-13T06:38:49;10.50;99.90
11656;DHT22;5884;43.618;1.438;2023-03-13T06:41:16;10.50;99.90
11656;DHT22;5884;43.618;1.438;2023-03-13T06:43:44;10.50;99.90
11656;DHT22;5884;43.618;1.438;2023-03-13T06:46:16;10.50;99.90
11656;DHT22;5884;43.618;1.438;2023-03-13T06:48:44;10.50;99.90
11656;DHT22;5884;43.618;1.438;2023-03-13T06:51:11;10.40;99.90
11656;DHT22;5884;43.618;1.438;2023-03-13T06:53:39;10.50;99.90
11656;DHT22;5884;43.618;1.438;2023-03-13T06:56:07;10.50;99.90
11656;DHT22;5884;43.618;1.438;2023-03-13T06:58:35;10.60;99.90
11656;DHT22;5884;43.618;1.438;2023-03-13T07:01:06;10.70;99.90
11656;DHT22;5884;43.618;1.438;2023-03-13T07:03:33;10.90;99.90
11656;DHT22;5884;43.618;1.438;2023-03-13T07:06:01;11.00;99.90
11656;DHT22;5884;43.618;1.438;2023-03-13T07:08:28;11.10;99.90
11656;DHT22;5884;43.618;1.438;2023-03-13T07:10:58;11.30;99.90
11656;DHT22;5884;43.618;1.438;2023-03-13T07:13:28;11.40;99.90
11656;DHT22;5884;43.618;1.438;2023-03-13T07:15:59;11.50;99.90
11656;DHT22;5884;43.618;1.438;2023-03-13T07:18:28;11.60;99.90
11656;DHT22;5884;43.618;1.438;2023-03-13T07:20:58;11.70;99.90
11656;DHT22;5884;43.618;1.438;2023-03-13T07:23:27;11.80;99.90
11656;DHT22;5884;43.618;1.438;2023-03-13T07:25:56;11.90;99.90
11656;DHT22;5884;43.618;1.438;2023-03-13T07:28:25;12.00;99.90
11656;DHT22;5884;43.618;1.438;2023-03-13T07:31:01;12.10;99.90
11656;DHT22;5884;43.618;1.438;2023-03-13T07:33:29;12.10;99.90
11656;DHT22;5884;43.618;1.438;2023-03-13T07:35:57;12.20;99.90
11656;DHT22;5884;43.618;1.438;2023-03-13T07:38:24;12.20;99.90
11656;DHT22;5884;43.618;1.438;2023-03-13T07:40:52;12.20;99.90
11656;DHT22;5884;43.618;1.438;2023-03-13T07:43:21;12.20;99.90
11656;DHT22;5884;43.618;1.438;2023-03-13T07:45:51;12.20;99.90
11656;DHT22;5884;43.618;1.438;2023-03-13T07:48:20;12.20;99.90
11656;DHT22;5884;43.618;1.438;2023-03-13T07:50:48;12.20;99.90
11656;DHT22;5884;43.618;1.438;2023-03-13T07:53:16;12.30;99.90
11656;DHT22;5884;43.618;1.438;2023-03-13T07:55:57;12.40;99.90
11656;DHT22;5884;43.618;1.438;2023-03-13T07:58:27;12.40;99.90
11656;DHT22;5884;43.618;1.438;2023-03-13T08:00:57;12.50;99.90
11656;DHT22;5884;43.618;1.438;2023-03-13T08:03:25;12.60;99.90
11656;DHT22;5884;43.618;1.438;2023-03-13T08:05:59;12.70;99.90
11656;DHT22;5884;43.618;1.438;2023-03-13T08:08:28;12.70;99.90
11656;DHT22;5884;43.618;1.438;2023-03-13T08:10:59;12.80;99.90
11656;DHT22;5884;43.618;1.438;2023-03-13T08:13:27;12.90;99.90
11656;DHT22;5884;43.618;1.438;2023-03-13T08:16:03;13.00;99.90
11656;DHT22;5884;43.618;1.438;2023-03-13T08:18:31;13.10;99.90
11656;DHT22;5884;43.618;1.438;2023-03-13T08:21:04;13.20;99.90
11656;DHT22;5884;43.618;1.438;2023-03-13T08:23:32;13.30;99.90
11656;DHT22;5884;43.618;1.438;2023-03-13T08:26:05;13.40;99.90
11656;DHT22;5884;43.618;1.438;2023-03-13T08:28:34;13.40;99.90
11656;DHT22;5884;43.618;1.438;2023-03-13T08:31:11;13.60;99.90
11656;DHT22;5884;43.618;1.438;2023-03-13T08:33:42;13.60;99.90
11656;DHT22;5884;43.618;1.438;2023-03-13T08:36:12;13.80;99.90
11656;DHT22;5884;43.618;1.438;2023-03-13T08:38:42;13.90;99.90
11656;DHT22;5884;43.618;1.438;2023-03-13T08:41:10;14.00;99.90
11656;DHT22;5884;43.618;1.438;2023-03-13T08:43:37;14.10;99.90
11656;DHT22;5884;43.618;1.438;2023-03-13T08:46:05;14.20;99.90
11656;DHT22;5884;43.618;1.438;2023-03-13T08:48:33;14.40;99.90
11656;DHT22;5884;43.618;1.438;2023-03-13T08:51:02;14.50;99.90
11656;DHT22;5884;43.618;1.438;2023-03-13T08:53:31;14.60;99.90
11656;DHT22;5884;43.618;1.438;2023-03-13T08:56:00;14.70;99.90
11656;DHT22;5884;43.618;1.438;2023-03-13T08:58:27;14.80;99.90
11656;DHT22;5884;43.618;1.438;2023-03-13T09:01:00;15.00;99.90
11656;DHT22;5884;43.618;1.438;2023-03-13T09:03:28;15.10;99.90
11656;DHT22;5884;43.618;1.438;2023-03-13T09:05:57;15.20;99.90
11656;DHT22;5884;43.618;1.438;2023-03-13T09:08:26;15.20;99.90
11656;DHT22;5884;43.618;1.438;2023-03-13T09:10:54;15.30;99.90
11656;DHT22;5884;43.618;1.438;2023-03-13T09:13:22;15.40;99.90
11656;DHT22;5884;43.618;1.438;2023-03-13T09:15:53;15.50;99.90
11656;DHT22;5884;43.618;1.438;2023-03-13T09:18:21;15.60;99.90
11656;DHT22;5884;43.618;1.438;2023-03-13T09:20:49;15.60;99.90
11656;DHT22;5884;43.618;1.438;2023-03-13T09:23:19;15.80;99.90
11656;DHT22;5884;43.618;1.438;2023-03-13T09:25:47;15.90;99.90
11656;DHT22;5884;43.618;1.438;2023-03-13T09:28:15;16.00;99.90
11656;DHT22;5884;43.618;1.438;2023-03-13T09:30:42;16.10;99.90
11656;DHT22;5884;43.618;1.438;2023-03-13T09:33:10;16.30;99.90
11656;DHT22;5884;43.618;1.438;2023-03-13T09:35:37;16.40;99.90
11656;DHT22;5884;43.618;1.438;2023-03-13T09:38:05;16.60;99.90
11656;DHT22;5884;43.618;1.438;2023-03-13T09:40:37;16.70;99.90
11656;DHT22;5884;43.618;1.438;2023-03-13T09:43:18;16.80;99.90
11656;DHT22;5884;43.618;1.438;2023-03-13T09:45:53;16.80;99.90
11656;DHT22;5884;43.618;1.438;2023-03-13T09:48:29;16.90;99.90
11656;DHT22;5884;43.618;1.438;2023-03-13T09:51:02;17.10;99.90
11656;DHT22;5884;43.618;1.438;2023-03-13T09:53:38;17.20;99.90
11656;DHT22;5884;43.618;1.438;2023-03-13T09:56:13;17.30;99.90
11656;DHT22;5884;43.618;1.438;2023-03-13T09:58:49;17.40;99.90
11656;DHT22;5884;43.618;1.438;2023-03-13T10:01:22;17.40;99.90
11656;DHT22;5884;43.618;1.438;2023-03-13T10:04:05;17.70;99.90
11656;DHT22;5884;43.618;1.438;2023-03-13T10:06:38;17.70;99.90
11656;DHT22;5884;43.618;1.438;2023-03-13T10:09:16;17.70;99.90
11656;DHT22;5884;43.618;1.438;2023-03-13T10:11:55;17.80;99.90
11656;DHT22;5884;43.618;1.438;2023-03-13T10:14:30;17.90;99.90
11656;DHT22;5884;43.618;1.438;2023-03-13T10:17:08;18.00;99.90
11656;DHT22;5884;43.618;1.438;2023-03-13T10:19:41;18.20;99.90
11656;DHT22;5884;43.618;1.438;2023-03-13T10:22:13;18.20;99.90
11656;DHT22;5884;43.618;1.438;2023-03-13T10:24:46;18.30;99.90
11656;DHT22;5884;43.618;1.438;2023-03-13T10:27:17;18.30;99.90
11656;DHT22;5884;43.618;1.438;2023-03-13T10:29:45;18.40;99.90
11656;DHT22;5884;43.618;1.438;2023-03-13T10:32:13;18.50;99.90
11656;DHT22;5884;43.618;1.438;2023-03-13T10:34:49;18.50;99.90
11656;DHT22;5884;43.618;1.438;2023-03-13T10:37:21;18.70;99.90
11656;DHT22;5884;43.618;1.438;2023-03-13T10:39:50;18.70;99.90
11656;DHT22;5884;43.618;1.438;2023-03-13T10:42:22;18.70;99.90
11656;DHT22;5884;43.618;1.438;2023-03-13T10:44:58;18.80;99.90
11656;DHT22;5884;43.618;1.438;2023-03-13T10:47:26;18.80;99.90
11656;DHT22;5884;43.618;1.438;2023-03-13T10:49:56;18.80;99.90
11656;DHT22;5884;43.618;1.438;2023-03-13T10:52:30;18.80;99.90
11656;DHT22;5884;43.618;1.438;2023-03-13T10:55:00;18.90;99.90
11656;DHT22;5884;43.618;1.438;2023-03-13T10:57:31;18.90;99.90
11656;DHT22;5884;43.618;1.438;2023-03-13T11:00:02;18.90;99.90
11656;DHT22;5884;43.618;1.438;2023-03-13T11:02:37;18.90;99.90
11656;DHT22;5884;43.618;1.438;2023-03-13T11:05:28;18.80;99.90
11656;DHT22;5884;43.618;1.438;2023-03-13T11:08:11;18.90;99.90
11656;DHT22;5884;43.618;1.438;2023-03-13T11:10:54;19.00;99.90
11656;DHT22;5884;43.618;1.438;2023-03-13T11:13:28;19.10;99.90
11656;DHT22;5884;43.618;1.438;2023-03-13T11:15:59;19.40;99.90
11656;DHT22;5884;43.618;1.438;2023-03-13T11:18:36;19.30;99.90
11656;DHT22;5884;43.618;1.438;2023-03-13T11:21:13;19.30;99.90
11656;DHT22;5884;43.618;1.438;2023-03-13T11:23:49;19.30;99.90
11656;DHT22;5884;43.618;1.438;2023-03-13T11:26:27;19.30;99.90
11656;DHT22;5884;43.618;1.438;2023-03-13T11:29:02;19.30;99.90
11656;DHT22;5884;43.618;1.438;2023-03-13T11:31:38;19.30;99.90
11656;DHT22;5884;43.618;1.438;2023-03-13T11:34:13;19.30;99.90
11656;DHT22;5884;43.618;1.438;2023-03-13T11:36:51;19.50;99.90
11656;DHT22;5884;43.618;1.438;2023-03-13T11:39:34;19.60;99.90
11656;DHT22;5884;43.618;1.438;2023-03-13T11:42:12;19.50;99.90
11656;DHT22;5884;43.618;1.438;2023-03-13T11:44:51;19.60;99.90
11656;DHT22;5884;43.618;1.438;2023-03-13T11:47:39;19.70;99.90
11656;DHT22;5884;43.618;1.438;2023-03-13T11:50:19;19.90;99.90
11656;DHT22;5884;43.618;1.438;2023-03-13T11:53:01;20.00;99.90
11656;DHT22;5884;43.618;1.438;2023-03-13T11:55:43;19.90;99.90
11656;DHT22;5884;43.618;1.438;2023-03-13T11:58:31;20.00;99.90
11656;DHT22;5884;43.618;1.438;2023-03-13T12:01:11;20.00;99.90
11656;DHT22;5884;43.618;1.438;2023-03-13T12:03:46;19.90;99.90
11656;DHT22;5884;43.618;1.438;2023-03-13T12:06:25;19.80;99.90
11656;DHT22;5884;43.618;1.438;2023-03-13T12:09:02;19.80;99.90
11656;DHT22;5884;43.618;1.438;2023-03-13T12:11:36;20.10;99.90
11656;DHT22;5884;43.618;1.438;2023-03-13T12:14:12;20.20;99.90
11656;DHT22;5884;43.618;1.438;2023-03-13T12:16:45;20.20;99.90
11656;DHT22;5884;43.618;1.438;2023-03-13T12:19:18;20.30;99.90
11656;DHT22;5884;43.618;1.438;2023-03-13T12:21:49;20.20;99.90
11656;DHT22;5884;43.618;1.438;2023-03-13T12:24:24;20.30;99.90
11656;DHT22;5884;43.618;1.438;2023-03-13T12:26:57;20.40;99.90
11656;DHT22;5884;43.618;1.438;2023-03-13T12:29:36;20.40;99.90
11656;DHT22;5884;43.618;1.438;2023-03-13T12:32:11;20.50;99.90
11656;DHT22;5884;43.618;1.438;2023-03-13T12:34:52;20.50;99.90
11656;DHT22;5884;43.618;1.438;2023-03-13T12:37:30;20.50;99.90
11656;DHT22;5884;43.618;1.438;2023-03-13T12:40:11;20.60;99.90
11656;DHT22;5884;43.618;1.438;2023-03-13T12:42:48;20.60;99.90
11656;DHT22;5884;43.618;1.438;2023-03-13T12:45:19;20.50;99.90
11656;DHT22;5884;43.618;1.438;2023-03-13T12:48:24;20.50;99.90
11656;DHT22;5884;43.618;1.438;2023-03-13T12:51:16;20.50;99.90
11656;DHT22;5884;43.618;1.438;2023-03-13T13:00:19;20.60;99.90
11656;DHT22;5884;43.618;1.438;2023-03-13T13:03:01;20.60;99.90
11656;DHT22;5884;43.618;1.438;2023-03-13T13:05:35;20.60;99.90
11656;DHT22;5884;43.618;1.438;2023-03-13T13:08:03;20.50;99.90
11656;DHT22;5884;43.618;1.438;2023-03-13T13:10:30;20.60;99.90
11656;DHT22;5884;43.618;1.438;2023-03-13T13:13:18;20.40;99.90
11656;DHT22;5884;43.618;1.438;2023-03-13T13:16:00;20.40;99.90
11656;DHT22;5884;43.618;1.438;2023-03-13T13:18:30;20.40;99.90
11656;DHT22;5884;43.618;1.438;2023-03-13T13:21:19;20.40;99.90
11656;DHT22;5884;43.618;1.438;2023-03-13T13:23:48;20.50;99.90
11656;DHT22;5884;43.618;1.438;2023-03-13T13:26:48;20.50;99.90
11656;DHT22;5884;43.618;1.438;2023-03-13T13:32:33;20.70;99.90
11656;DHT22;5884;43.618;1.438;2023-03-13T13:35:35;20.80;99.90
11656;DHT22;5884;43.618;1.438;2023-03-13T13:38:26;20.60;99.90
11656;DHT22;5884;43.618;1.438;2023-03-13T13:41:26;20.60;99.90
11656;DHT22;5884;43.618;1.438;2023-03-13T13:44:27;20.50;99.90
11656;DHT22;5884;43.618;1.438;2023-03-13T13:46:57;20.60;99.90
11656;DHT22;5884;43.618;1.438;2023-03-13T13:49:50;20.60;99.90
11656;DHT22;5884;43.618;1.438;2023-03-13T13:52:37;20.60;99.90
11656;DHT22;5884;43.618;1.438;2023-03-13T13:55:30;20.50;99.90
11656;DHT22;5884;43.618;1.438;2023-03-13T13:58:00;20.50;99.90
11656;DHT22;5884;43.618;1.438;2023-03-13T14:00:37;20.30;99.90
11656;DHT22;5884;43.618;1.438;2023-03-13T14:03:22;20.30;99.90
11656;DHT22;5884;43.618;1.438;2023-03-13T14:05:53;20.30;99.90
11656;DHT22;5884;43.618;1.438;2023-03-13T14:08:26;20.30;99.90
11656;DHT22;5884;43.618;1.438;2023-03-13T14:11:06;20.40;99.90
11656;DHT22;5884;43.618;1.438;2023-03-13T14:13:40;20.50;99.90
11656;DHT22;5884;43.618;1.438;2023-03-13T14:16:21;20.40;99.90
11656;DHT22;5884;43.618;1.438;2023-03-13T14:18:52;20.20;99.90
11656;DHT22;5884;43.618;1.438;2023-03-13T14:21:21;20.10;99.90
11656;DHT22;5884;43.618;1.438;2023-03-13T14:23:49;19.80;99.90
11656;DHT22;5884;43.618;1.438;2023-03-13T14:26:18;19.80;99.90
11656;DHT22;5884;43.618;1.438;2023-03-13T14:28:47;19.90;99.90
11656;DHT22;5884;43.618;1.438;2023-03-13T14:31:27;19.90;99.90
11656;DHT22;5884;43.618;1.438;2023-03-13T14:33:59;19.90;99.90
11656;DHT22;5884;43.618;1.438;2023-03-13T14:36:27;19.80;99.90
11656;DHT22;5884;43.618;1.438;2023-03-13T14:38:56;19.90;99.90
11656;DHT22;5884;43.618;1.438;2023-03-13T14:41:28;19.90;99.90
11656;DHT22;5884;43.618;1.438;2023-03-13T14:44:04;20.00;99.90
11656;DHT22;5884;43.618;1.438;2023-03-13T14:46:51;19.90;99.90
11656;DHT22;5884;43.618;1.438;2023-03-13T14:49:24;20.00;99.90
11656;DHT22;5884;43.618;1.438;2023-03-13T14:51:58;20.00;99.90
11656;DHT22;5884;43.618;1.438;2023-03-13T14:54:29;20.00;99.90
11656;DHT22;5884;43.618;1.438;2023-03-13T14:57:15;19.90;99.90
11656;DHT22;5884;43.618;1.438;2023-03-13T14:59:48;19.80;99.90
11656;DHT22;5884;43.618;1.438;2023-03-13T15:02:20;19.80;99.90
11656;DHT22;5884;43.618;1.438;2023-03-13T15:04:55;19.90;99.90
11656;DHT22;5884;43.618;1.438;2023-03-13T15:07:26;19.70;99.90
11656;DHT22;5884;43.618;1.438;2023-03-13T15:09:55;19.70;99.90
11656;DHT22;5884;43.618;1.438;2023-03-13T15:12:22;19.60;99.90
11656;DHT22;5884;43.618;1.438;2023-03-13T15:14:51;19.70;99.90
11656;DHT22;5884;43.618;1.438;2023-03-13T15:17:20;19.60;99.90
11656;DHT22;5884;43.618;1.438;2023-03-13T15:19:50;19.60;99.90
11656;DHT22;5884;43.618;1.438;2023-03-13T15:22:25;19.50;99.90
11656;DHT22;5884;43.618;1.438;2023-03-13T15:24:54;19.50;99.90
11656;DHT22;5884;43.618;1.438;2023-03-13T15:27:23;19.60;99.90
11656;DHT22;5884;43.618;1.438;2023-03-13T15:29:52;19.60;99.90
11656;DHT22;5884;43.618;1.438;2023-03-13T15:32:25;19.70;99.90
11656;DHT22;5884;43.618;1.438;2023-03-13T15:34:55;19.50;99.90
11656;DHT22;5884;43.618;1.438;2023-03-13T15:37:23;19.40;99.90
11656;DHT22;5884;43.618;1.438;2023-03-13T15:39:52;19.40;99.90
11656;DHT22;5884;43.618;1.438;2023-03-13T15:42:20;19.40;99.90
11656;DHT22;5884;43.618;1.438;2023-03-13T15:44:48;19.40;99.90
11656;DHT22;5884;43.618;1.438;2023-03-13T15:47:18;19.40;99.90
11656;DHT22;5884;43.618;1.438;2023-03-13T15:49:47;19.40;99.90
11656;DHT22;5884;43.618;1.438;2023-03-13T15:52:18;19.40;99.90
11656;DHT22;5884;43.618;1.438;2023-03-13T15:54:47;19.40;99.90
11656;DHT22;5884;43.618;1.438;2023-03-13T15:57:17;19.30;99.90
11656;DHT22;5884;43.618;1.438;2023-03-13T15:59:47;19.20;99.90
11656;DHT22;5884;43.618;1.438;2023-03-13T16:02:16;19.20;99.90
11656;DHT22;5884;43.618;1.438;2023-03-13T16:04:45;19.20;99.90
11656;DHT22;5884;43.618;1.438;2023-03-13T16:07:16;18.90;99.90
11656;DHT22;5884;43.618;1.438;2023-03-13T16:09:45;18.70;99.90
11656;DHT22;5884;43.618;1.438;2023-03-13T16:12:13;18.50;99.90
11656;DHT22;5884;43.618;1.438;2023-03-13T16:14:40;18.50;99.90
11656;DHT22;5884;43.618;1.438;2023-03-13T16:17:13;18.50;99.90
11656;DHT22;5884;43.618;1.438;2023-03-13T16:19:41;18.50;99.90
11656;DHT22;5884;43.618;1.438;2023-03-13T16:22:08;18.50;99.90
11656;DHT22;5884;43.618;1.438;2023-03-13T16:24:37;18.50;99.90
11656;DHT22;5884;43.618;1.438;2023-03-13T16:27:11;18.50;99.90
11656;DHT22;5884;43.618;1.438;2023-03-13T16:29:39;18.40;99.90
11656;DHT22;5884;43.618;1.438;2023-03-13T16:32:09;18.40;99.90
11656;DHT22;5884;43.618;1.438;2023-03-13T16:34:37;18.40;99.90
11656;DHT22;5884;43.618;1.438;2023-03-13T16:37:10;18.30;99.90
11656;DHT22;5884;43.618;1.438;2023-03-13T16:39:40;18.20;99.90
11656;DHT22;5884;43.618;1.438;2023-03-13T16:42:08;18.20;99.90
11656;DHT22;5884;43.618;1.438;2023-03-13T16:44:35;18.20;99.90
11656;DHT22;5884;43.618;1.438;2023-03-13T16:47:12;18.10;99.90
11656;DHT22;5884;43.618;1.438;2023-03-13T16:49:43;18.10;99.90
11656;DHT22;5884;43.618;1.438;2023-03-13T16:52:13;18.10;99.90
11656;DHT22;5884;43.618;1.438;2023-03-13T16:54:42;18.00;99.90
11656;DHT22;5884;43.618;1.438;2023-03-13T16:57:11;17.80;99.90
11656;DHT22;5884;43.618;1.438;2023-03-13T16:59:39;17.70;99.90
11656;DHT22;5884;43.618;1.438;2023-03-13T17:02:12;17.60;99.90
11656;DHT22;5884;43.618;1.438;2023-03-13T17:04:41;17.50;99.90
11656;DHT22;5884;43.618;1.438;2023-03-13T17:07:16;17.40;99.90
11656;DHT22;5884;43.618;1.438;2023-03-13T17:09:46;17.30;99.90
11656;DHT22;5884;43.618;1.438;2023-03-13T17:12:14;17.30;99.90
11656;DHT22;5884;43.618;1.438;2023-03-13T17:14:42;17.30;99.90
11656;DHT22;5884;43.618;1.438;2023-03-13T17:17:11;17.20;99.90
11656;DHT22;5884;43.618;1.438;2023-03-13T17:19:39;17.20;99.90
11656;DHT22;5884;43.618;1.438;2023-03-13T17:22:06;17.20;99.90
11656;DHT22;5884;43.618;1.438;2023-03-13T17:24:35;17.10;99.90
11656;DHT22;5884;43.618;1.438;2023-03-13T17:27:04;17.20;99.90
11656;DHT22;5884;43.618;1.438;2023-03-13T17:29:31;17.30;99.90
11656;DHT22;5884;43.618;1.438;2023-03-13T17:31:58;17.30;99.90
11656;DHT22;5884;43.618;1.438;2023-03-13T17:34:27;17.30;99.90
11656;DHT22;5884;43.618;1.438;2023-03-13T17:36:55;17.20;99.90
11656;DHT22;5884;43.618;1.438;2023-03-13T17:39:24;17.00;99.90
11656;DHT22;5884;43.618;1.438;2023-03-13T17:41:51;16.90;99.90
11656;DHT22;5884;43.618;1.438;2023-03-13T17:44:20;16.80;99.90
11656;DHT22;5884;43.618;1.438;2023-03-13T17:46:47;16.80;99.90
11656;DHT22;5884;43.618;1.438;2023-03-13T17:49:17;16.70;99.90
11656;DHT22;5884;43.618;1.438;2023-03-13T17:51:45;16.60;99.90
11656;DHT22;5884;43.618;1.438;2023-03-13T17:54:14;16.50;99.90
11656;DHT22;5884;43.618;1.438;2023-03-13T17:56:42;16.50;99.90
11656;DHT22;5884;43.618;1.438;2023-03-13T17:59:12;16.60;99.90
11656;DHT22;5884;43.618;1.438;2023-03-13T18:01:41;16.50;99.90
11656;DHT22;5884;43.618;1.438;2023-03-13T18:04:09;16.50;99.90
11656;DHT22;5884;43.618;1.438;2023-03-13T18:06:39;16.50;99.90
11656;DHT22;5884;43.618;1.438;2023-03-13T18:09:12;16.70;99.90
11656;DHT22;5884;43.618;1.438;2023-03-13T18:11:41;16.60;99.90
11656;DHT22;5884;43.618;1.438;2023-03-13T18:14:09;16.50;99.90
11656;DHT22;5884;43.618;1.438;2023-03-13T18:16:37;16.50;99.90
11656;DHT22;5884;43.618;1.438;2023-03-13T18:19:12;16.50;99.90
11656;DHT22;5884;43.618;1.438;2023-03-13T18:21:41;16.30;99.90
11656;DHT22;5884;43.618;1.438;2023-03-13T18:24:09;16.10;99.90
11656;DHT22;5884;43.618;1.438;2023-03-13T18:26:38;16.10;99.90
11656;DHT22;5884;43.618;1.438;2023-03-13T18:29:13;16.00;99.90
11656;DHT22;5884;43.618;1.438;2023-03-13T18:31:42;15.90;99.90
11656;DHT22;5884;43.618;1.438;2023-03-13T18:34:11;16.00;99.90
11656;DHT22;5884;43.618;1.438;2023-03-13T18:36:39;15.90;99.90
11656;DHT22;5884;43.618;1.438;2023-03-13T18:39:12;15.80;99.90
11656;DHT22;5884;43.618;1.438;2023-03-13T18:41:42;15.80;99.90
11656;DHT22;5884;43.618;1.438;2023-03-13T18:44:09;15.80;99.90
11656;DHT22;5884;43.618;1.438;2023-03-13T18:46:39;15.70;99.90
11656;DHT22;5884;43.618;1.438;2023-03-13T18:49:12;15.70;99.90
11656;DHT22;5884;43.618;1.438;2023-03-13T18:51:42;15.70;99.90
11656;DHT22;5884;43.618;1.438;2023-03-13T18:54:09;15.70;99.90
11656;DHT22;5884;43.618;1.438;2023-03-13T18:56:37;15.60;99.90
11656;DHT22;5884;43.618;1.438;2023-03-13T18:59:08;15.70;99.90
11656;DHT22;5884;43.618;1.438;2023-03-13T19:01:37;15.70;99.90
11656;DHT22;5884;43.618;1.438;2023-03-13T19:04:04;15.60;99.90
11656;DHT22;5884;43.618;1.438;2023-03-13T19:06:34;15.20;99.90
11656;DHT22;5884;43.618;1.438;2023-03-13T19:09:08;15.00;99.90
11656;DHT22;5884;43.618;1.438;2023-03-13T19:11:38;14.80;99.90
11656;DHT22;5884;43.618;1.438;2023-03-13T19:14:05;14.60;99.90
11656;DHT22;5884;43.618;1.438;2023-03-13T19:16:35;14.40;99.90
11656;DHT22;5884;43.618;1.438;2023-03-13T19:19:10;14.30;99.90
11656;DHT22;5884;43.618;1.438;2023-03-13T19:21:40;14.10;99.90
11656;DHT22;5884;43.618;1.438;2023-03-13T19:24:07;14.10;99.90
11656;DHT22;5884;43.618;1.438;2023-03-13T19:26:38;14.00;99.90
11656;DHT22;5884;43.618;1.438;2023-03-13T19:29:11;14.00;99.90
11656;DHT22;5884;43.618;1.438;2023-03-13T19:31:40;13.90;99.90
11656;DHT22;5884;43.618;1.438;2023-03-13T19:34:07;13.80;99.90
11656;DHT22;5884;43.618;1.438;2023-03-13T19:36:37;13.80;99.90
11656;DHT22;5884;43.618;1.438;2023-03-13T19:39:12;13.70;99.90
11656;DHT22;5884;43.618;1.438;2023-03-13T19:41:40;13.70;99.90
11656;DHT22;5884;43.618;1.438;2023-03-13T19:44:07;13.60;99.90
11656;DHT22;5884;43.618;1.438;2023-03-13T19:46:35;13.60;99.90
11656;DHT22;5884;43.618;1.438;2023-03-13T19:49:09;13.50;99.90
11656;DHT22;5884;43.618;1.438;2023-03-13T19:51:37;13.40;99.90
11656;DHT22;5884;43.618;1.438;2023-03-13T19:54:06;13.40;99.90
11656;DHT22;5884;43.618;1.438;2023-03-13T19:56:36;13.30;99.90
11656;DHT22;5884;43.618;1.438;2023-03-13T19:59:06;13.30;99.90
11656;DHT22;5884;43.618;1.438;2023-03-13T20:01:35;13.20;99.90
11656;DHT22;5884;43.618;1.438;2023-03-13T20:04:03;13.20;99.90
11656;DHT22;5884;43.618;1.438;2023-03-13T20:06:32;13.10;99.90
11656;DHT22;5884;43.618;1.438;2023-03-13T20:09:03;13.10;99.90
11656;DHT22;5884;43.618;1.438;2023-03-13T20:11:33;13.10;99.90
11656;DHT22;5884;43.618;1.438;2023-03-13T20:14:01;13.00;99.90
11656;DHT22;5884;43.618;1.438;2023-03-13T20:16:29;12.90;99.90
11656;DHT22;5884;43.618;1.438;2023-03-13T20:18:57;12.90;99.90
11656;DHT22;5884;43.618;1.438;2023-03-13T20:21:26;12.90;99.90
11656;DHT22;5884;43.618;1.438;2023-03-13T20:23:55;12.80;99.90
11656;DHT22;5884;43.618;1.438;2023-03-13T20:26:23;12.70;99.90
11656;DHT22;5884;43.618;1.438;2023-03-13T20:28:53;12.60;99.90
11656;DHT22;5884;43.618;1.438;2023-03-13T20:31:23;12.50;99.90
11656;DHT22;5884;43.618;1.438;2023-03-13T20:33:51;12.40;99.90
11656;DHT22;5884;43.618;1.438;2023-03-13T20:36:20;12.30;99.90
11656;DHT22;5884;43.618;1.438;2023-03-13T20:38:48;12.10;99.90
11656;DHT22;5884;43.618;1.438;2023-03-13T20:41:16;12.00;99.90
11656;DHT22;5884;43.618;1.438;2023-03-13T20:43:45;11.90;99.90
11656;DHT22;5884;43.618;1.438;2023-03-13T20:46:14;11.90;99.90
11656;DHT22;5884;43.618;1.438;2023-03-13T20:48:41;11.90;99.90
11656;DHT22;5884;43.618;1.438;2023-03-13T20:51:12;11.80;99.90
11656;DHT22;5884;43.618;1.438;2023-03-13T20:53:40;11.80;99.90
11656;DHT22;5884;43.618;1.438;2023-03-13T20:56:09;11.80;99.90
11656;DHT22;5884;43.618;1.438;2023-03-13T20:58:37;11.70;99.90
11656;DHT22;5884;43.618;1.438;2023-03-13T21:01:05;11.70;99.90
11656;DHT22;5884;43.618;1.438;2023-03-13T21:03:34;11.70;99.90
11656;DHT22;5884;43.618;1.438;2023-03-13T21:06:08;11.70;99.90
11656;DHT22;5884;43.618;1.438;2023-03-13T21:08:35;11.70;99.90
11656;DHT22;5884;43.618;1.438;2023-03-13T21:11:10;11.60;99.90
11656;DHT22;5884;43.618;1.438;2023-03-13T21:13:37;11.60;99.90
11656;DHT22;5884;43.618;1.438;2023-03-13T21:16:05;11.70;99.90
11656;DHT22;5884;43.618;1.438;2023-03-13T21:18:35;11.70;99.90
11656;DHT22;5884;43.618;1.438;2023-03-13T21:21:03;11.60;99.90
11656;DHT22;5884;43.618;1.438;2023-03-13T21:23:31;11.50;99.90
11656;DHT22;5884;43.618;1.438;2023-03-13T21:25:59;11.50;99.90
11656;DHT22;5884;43.618;1.438;2023-03-13T21:28:26;11.50;99.90
11656;DHT22;5884;43.618;1.438;2023-03-13T21:30:55;11.50;99.90
11656;DHT22;5884;43.618;1.438;2023-03-13T21:33:23;11.50;99.90
11656;DHT22;5884;43.618;1.438;2023-03-13T21:35:51;11.50;99.90
11656;DHT22;5884;43.618;1.438;2023-03-13T21:38:19;11.50;99.90
11656;DHT22;5884;43.618;1.438;2023-03-13T21:40:46;11.50;99.90
11656;DHT22;5884;43.618;1.438;2023-03-13T21:43:14;11.50;99.90
11656;DHT22;5884;43.618;1.438;2023-03-13T21:45:41;11.50;99.90
11656;DHT22;5884;43.618;1.438;2023-03-13T21:48:08;11.50;99.90
11656;DHT22;5884;43.618;1.438;2023-03-13T21:50:35;11.40;99.90
11656;DHT22;5884;43.618;1.438;2023-03-13T21:53:04;11.40;99.90
11656;DHT22;5884;43.618;1.438;2023-03-13T21:55:31;11.40;99.90
11656;DHT22;5884;43.618;1.438;2023-03-13T21:58:02;11.40;99.90
